Time;durP1;ratioP1;P1;durP2;ratioP2;P2;SDS_P1;SDS_P2;PMS_P1;PMS_P2;Temp;Humidity;BMP_temperature;BMP_pressure;BME280_temperature;BME280_humidity;BME280_pressure;Samples;Min_cycle;Max_cycle;Signal;HPM_P1;HPM_P2
2021/08/26 00:01:08;;;;;;;3.15;2.80;;;;;;;12.96;93.55;97390.20;1708204;83;21427;-87
2021/08/26 00:06:19;;;;;;;4.72;2.40;;;;;;;13.02;94.06;97380.58;1708398;83;21037;-87
2021/08/26 00:08:47;;;;;;;3.33;2.40;;;;;;;13.04;93.78;97379.57;1709729;83;21029;-87
2021/08/26 00:11:13;;;;;;;4.55;2.58;;;;;;;13.09;93.65;97380.69;1710018;83;21039;-87
2021/08/26 00:13:46;;;;;;;4.53;2.40;;;;;;;13.11;93.42;97380.59;1708354;84;21525;-87
2021/08/26 00:16:15;;;;;;;4.47;2.33;;;;;;;13.13;93.29;97379.61;1708381;84;20978;-88
2021/08/26 00:18:45;;;;;;;4.75;2.60;;;;;;;13.12;93.02;97382.33;1708566;83;21044;-87
2021/08/26 00:21:12;;;;;;;5.87;2.58;;;;;;;13.08;93.04;97377.61;1709576;83;20969;-87
2021/08/26 00:23:40;;;;;;;5.30;2.77;;;;;;;13.10;93.07;97377.08;1709861;84;21013;-87
2021/08/26 00:26:07;;;;;;;3.85;2.60;;;;;;;13.07;92.85;97373.23;1709763;83;21064;-87
2021/08/26 00:28:34;;;;;;;6.67;2.65;;;;;;;13.03;92.54;97366.34;1709698;83;21048;-87
2021/08/26 00:31:01;;;;;;;4.75;2.70;;;;;;;12.98;93.01;97359.94;1709667;84;21012;-87
2021/08/26 00:33:27;;;;;;;3.45;2.58;;;;;;;12.97;93.13;97358.67;1709703;84;22013;-87
2021/08/26 00:35:54;;;;;;;7.10;2.95;;;;;;;12.92;93.16;97353.11;1709777;84;20945;-88
2021/08/26 00:38:21;;;;;;;7.60;3.27;;;;;;;12.90;92.79;97347.48;1709408;83;21379;-87
2021/08/26 00:40:52;;;;;;;3.87;3.17;;;;;;;12.84;92.46;97356.64;1709864;84;21900;-88
2021/08/26 00:43:19;;;;;;;4.10;2.92;;;;;;;12.76;92.67;97349.50;1708197;83;21025;-87
2021/08/26 00:45:50;;;;;;;4.12;3.02;;;;;;;12.72;92.19;97353.23;1708210;83;21036;-87
2021/08/26 00:48:23;;;;;;;5.25;3.15;;;;;;;12.64;92.92;97349.16;1708973;83;21481;-87
2021/08/26 00:50:57;;;;;;;7.92;4.03;;;;;;;12.58;93.70;97349.44;1707982;83;21032;-87
2021/08/26 00:53:25;;;;;;;7.65;3.35;;;;;;;12.50;93.91;97351.14;1704948;84;21423;-88
2021/08/26 00:55:52;;;;;;;5.67;3.08;;;;;;;12.43;93.77;97345.73;1700710;83;21443;-88
2021/08/26 00:58:20;;;;;;;6.10;3.27;;;;;;;12.39;93.80;97344.16;1741053;82;20985;-88
2021/08/26 01:00:50;;;;;;;3.72;2.77;;;;;;;12.35;94.02;97346.11;1694360;83;21424;-87
2021/08/26 01:03:21;;;;;;;6.83;3.67;;;;;;;12.33;93.42;97350.61;1694137;83;21039;-87
2021/08/26 01:05:54;;;;;;;4.37;3.70;;;;;;;12.33;93.55;97345.30;1719808;83;21056;-87
2021/08/26 01:08:29;;;;;;;8.38;3.60;;;;;;;12.31;93.45;97342.32;1719584;82;21167;-87
2021/08/26 01:10:58;;;;;;;6.47;3.70;;;;;;;12.26;93.34;97339.41;1708171;82;21004;-88
2021/08/26 01:13:35;;;;;;;5.78;3.80;;;;;;;12.23;93.55;97338.24;1753782;82;21020;-88
2021/08/26 01:16:06;;;;;;;6.15;3.30;;;;;;;12.22;94.03;97338.31;1747746;82;21408;-87
2021/08/26 01:18:38;;;;;;;6.67;3.80;;;;;;;12.18;94.42;97336.72;1720868;83;21434;-87
2021/08/26 01:21:15;;;;;;;6.05;3.65;;;;;;;12.13;95.54;97331.16;1720890;83;20996;-87
2021/08/26 01:23:48;;;;;;;5.15;3.55;;;;;;;12.10;96.77;97332.65;1720771;83;21036;-87
2021/08/26 01:26:31;;;;;;;4.78;3.50;;;;;;;12.08;96.07;97335.82;1726187;82;20937;-87
2021/08/26 01:29:01;;;;;;;6.42;3.60;;;;;;;12.05;96.68;97333.78;1728896;82;21458;-88
2021/08/26 01:31:28;;;;;;;6.55;3.50;;;;;;;12.04;95.29;97331.55;1720802;83;21035;-88
2021/08/26 01:33:55;;;;;;;3.52;3.00;;;;;;;12.06;95.08;97331.06;1720886;83;20994;-87
2021/08/26 01:36:31;;;;;;;6.35;3.35;;;;;;;12.10;94.34;97334.43;1740140;82;20945;-87
2021/08/26 01:39:08;;;;;;;5.95;3.15;;;;;;;12.09;94.34;97328.73;1720838;83;21072;-87
2021/08/26 01:41:54;;;;;;;5.70;3.30;;;;;;;12.08;94.48;97327.02;1719991;83;21044;-88
2021/08/26 01:44:29;;;;;;;4.00;2.80;;;;;;;12.07;94.32;97328.80;1700934;82;21036;-87
2021/08/26 01:47:09;;;;;;;4.90;2.90;;;;;;;12.06;94.08;97321.77;1735788;81;21010;-88
2021/08/26 01:49:36;;;;;;;4.00;3.02;;;;;;;12.08;94.05;97323.03;1719318;83;21084;-87
2021/08/26 01:52:03;;;;;;;5.33;2.77;;;;;;;12.04;94.02;97315.61;1719318;83;20985;-88
2021/08/26 01:54:30;;;;;;;3.98;2.60;;;;;;;12.03;93.81;97319.70;1720379;82;22214;-87
2021/08/26 01:56:56;;;;;;;5.53;2.90;;;;;;;12.03;94.32;97315.22;1714413;82;21024;-87
2021/08/26 01:59:23;;;;;;;4.30;2.70;;;;;;;12.04;94.02;97315.61;1752473;81;21055;-86
2021/08/26 02:01:49;;;;;;;5.97;3.00;;;;;;;12.02;93.90;97317.49;1753388;82;20977;-86
2021/08/26 02:04:18;;;;;;;4.40;2.62;;;;;;;11.99;94.02;97317.17;1732289;82;21040;-85
2021/08/26 02:06:44;;;;;;;4.08;2.55;;;;;;;11.99;93.88;97309.20;1719107;83;21011;-86
2021/08/26 02:09:10;;;;;;;3.67;2.90;;;;;;;11.97;93.73;97313.73;1726503;82;21465;-86
2021/08/26 02:11:37;;;;;;;5.28;2.40;;;;;;;11.93;93.63;97309.49;1752961;82;21016;-86
2021/08/26 02:14:04;;;;;;;3.85;2.58;;;;;;;11.90;93.73;97310.95;1752279;82;21083;-86
2021/08/26 02:16:30;;;;;;;3.65;2.87;;;;;;;11.86;93.73;97314.22;1741792;82;21024;-86
2021/08/26 02:18:57;;;;;;;5.30;2.77;;;;;;;11.83;94.19;97317.00;1717905;83;21025;-86
2021/08/26 02:21:27;;;;;;;4.70;3.25;;;;;;;11.81;93.97;97317.55;1719101;82;21517;-86
2021/08/26 02:23:54;;;;;;;3.95;2.95;;;;;;;11.82;94.32;97317.95;1714488;83;21429;-87
2021/08/26 02:26:20;;;;;;;5.85;3.10;;;;;;;11.80;95.17;97317.16;1715205;83;21426;-87
2021/08/26 02:28:48;;;;;;;3.77;2.75;;;;;;;11.78;94.64;97319.01;1720422;83;21032;-87
2021/08/26 02:31:14;;;;;;;5.25;3.00;;;;;;;11.75;94.02;97316.03;1720071;83;21063;-87
2021/08/26 02:33:41;;;;;;;4.62;2.95;;;;;;;11.69;93.74;97314.98;1730106;80;21063;-86
2021/08/26 02:36:07;;;;;;;4.58;3.77;;;;;;;11.65;93.68;97311.20;1749131;82;21044;-86
2021/08/26 02:38:34;;;;;;;7.80;3.60;;;;;;;11.58;93.95;97313.26;1721226;82;21417;-87
2021/08/26 02:41:00;;;;;;;7.92;3.47;;;;;;;11.53;95.21;97313.48;1720837;83;21060;-87
2021/08/26 02:43:27;;;;;;;5.28;3.67;;;;;;;11.49;94.94;97314.09;1720848;83;21489;-87
2021/08/26 02:45:53;;;;;;;5.83;3.50;;;;;;;11.49;94.47;97316.74;1741663;82;20980;-87
2021/08/26 02:48:19;;;;;;;7.85;3.90;;;;;;;11.42;94.33;97311.30;1719216;83;20965;-87
2021/08/26 02:50:46;;;;;;;5.20;3.30;;;;;;;11.39;94.50;97315.42;1719175;83;21056;-87
2021/08/26 02:53:12;;;;;;;6.08;3.40;;;;;;;11.35;94.35;97314.67;1720100;82;21458;-87
2021/08/26 02:55:39;;;;;;;4.62;3.55;;;;;;;11.33;94.63;97314.34;1714828;82;21019;-87
2021/08/26 02:58:06;;;;;;;5.53;3.47;;;;;;;11.29;94.40;97317.60;1689626;83;21067;-87
2021/08/26 03:00:32;;;;;;;6.78;4.15;;;;;;;11.26;94.33;97319.08;1692168;85;21017;-87
2021/08/26 03:02:58;;;;;;;6.55;3.92;;;;;;;11.21;94.13;97316.61;1699060;82;21064;-87
2021/08/26 03:05:25;;;;;;;5.45;3.90;;;;;;;11.17;94.46;97316.34;1708895;84;21052;-87
2021/08/26 03:07:51;;;;;;;10.55;3.67;;;;;;;11.16;94.15;97320.38;1695757;83;20995;-87
2021/08/26 03:10:20;;;;;;;4.33;3.35;;;;;;;11.13;94.59;97315.23;1693506;84;21067;-87
2021/08/26 03:12:46;;;;;;;7.60;3.10;;;;;;;11.11;94.83;97318.39;1693493;84;21029;-87
2021/08/26 03:15:12;;;;;;;5.05;3.50;;;;;;;11.06;96.39;97317.27;1698190;83;21039;-87
2021/08/26 03:17:39;;;;;;;5.08;3.65;;;;;;;11.04;95.46;97317.33;1698603;84;21037;-88
2021/08/26 03:20:07;;;;;;;4.78;2.80;;;;;;;11.04;95.43;97322.64;1693566;85;21439;-87
2021/08/26 03:22:33;;;;;;;5.55;3.35;;;;;;;11.01;95.05;97310.82;1693552;84;20993;-87
2021/08/26 03:25:00;;;;;;;7.47;3.77;;;;;;;11.01;94.82;97316.61;1693719;85;21062;-87
2021/08/26 03:27:26;;;;;;;5.33;2.90;;;;;;;11.01;94.41;97317.45;1703420;83;21414;-87
2021/08/26 03:29:53;;;;;;;6.30;2.95;;;;;;;11.01;94.67;97324.56;1724389;83;20968;-87
2021/08/26 03:32:19;;;;;;;8.63;3.55;;;;;;;11.01;95.35;97321.42;1708658;84;21449;-87
2021/08/26 03:34:45;;;;;;;4.42;3.05;;;;;;;11.04;95.12;97321.31;1697309;83;21119;-87
2021/08/26 03:37:12;;;;;;;4.33;3.42;;;;;;;11.07;94.73;97324.30;1692557;83;21012;-87
2021/08/26 03:39:38;;;;;;;7.62;2.83;;;;;;;11.07;94.83;97319.87;1705828;83;21014;-87
2021/08/26 03:42:05;;;;;;;8.28;2.80;;;;;;;11.13;94.86;97324.02;1724507;83;21061;-87
2021/08/26 03:44:32;;;;;;;3.83;2.55;;;;;;;11.21;95.32;97327.22;1724258;83;20986;-87
2021/08/26 03:46:58;;;;;;;7.67;2.65;;;;;;;11.24;94.58;97323.57;1713595;83;21005;-87
2021/08/26 03:49:24;;;;;;;5.00;2.60;;;;;;;11.27;94.74;97330.53;1693583;85;21049;-87
2021/08/26 03:51:51;;;;;;;8.05;2.40;;;;;;;11.32;94.77;97327.22;1702070;83;21072;-87
2021/08/26 03:54:17;;;;;;;3.00;2.45;;;;;;;11.36;95.08;97326.16;1709733;83;20969;-87
2021/08/26 03:56:45;;;;;;;2.95;2.17;;;;;;;11.41;95.13;97329.47;1718218;82;21040;-87
2021/08/26 03:59:12;;;;;;;4.75;2.47;;;;;;;11.46;94.79;97334.59;1719279;83;21052;-87
2021/08/26 04:01:38;;;;;;;4.92;2.75;;;;;;;11.48;94.38;97334.05;1719312;83;21048;-87
2021/08/26 04:04:05;;;;;;;5.87;2.10;;;;;;;11.52;94.66;97329.46;1732188;82;20996;-88
2021/08/26 04:06:31;;;;;;;4.92;2.05;;;;;;;11.52;93.57;97329.46;1748381;82;21035;-87
2021/08/26 04:08:57;;;;;;;4.17;2.27;;;;;;;11.54;94.05;97334.25;1720822;83;21406;-88
2021/08/26 04:11:24;;;;;;;6.67;2.25;;;;;;;11.53;93.69;97324.55;1720293;82;20985;-87
2021/08/26 04:13:50;;;;;;;5.97;2.45;;;;;;;11.57;94.03;97332.32;1719767;83;20996;-87
2021/08/26 04:16:17;;;;;;;4.30;2.77;;;;;;;11.59;93.83;97333.59;1744751;82;21004;-87
2021/08/26 04:18:43;;;;;;;3.72;2.42;;;;;;;11.59;93.66;97331.77;1721033;82;21011;-87
2021/08/26 04:21:10;;;;;;;3.62;2.20;;;;;;;11.59;93.63;97334.42;1720802;83;21111;-87
2021/08/26 04:23:36;;;;;;;5.25;2.50;;;;;;;11.58;93.42;97333.16;1720912;83;21043;-87
2021/08/26 04:26:03;;;;;;;5.17;2.58;;;;;;;11.54;93.19;97327.14;1720812;83;21453;-87
2021/08/26 04:28:29;;;;;;;3.47;2.47;;;;;;;11.52;93.20;97340.08;1721593;82;21009;-87
2021/08/26 04:30:56;;;;;;;6.05;2.50;;;;;;;11.40;91.97;97337.05;1720698;83;20985;-87
2021/08/26 04:33:23;;;;;;;4.53;2.40;;;;;;;11.34;92.05;97334.66;1691753;83;20973;-87
2021/08/26 04:35:50;;;;;;;3.42;2.20;;;;;;;11.31;92.52;97332.13;1720423;83;21020;-87
2021/08/26 04:38:16;;;;;;;6.30;2.35;;;;;;;11.29;92.10;97328.70;1720373;82;20996;-87
2021/08/26 04:40:43;;;;;;;12.70;3.37;;;;;;;11.20;91.69;97330.81;1719781;83;21462;-87
2021/08/26 04:43:10;;;;;;;4.85;2.30;;;;;;;11.16;92.15;97325.23;1719224;83;21001;-87
2021/08/26 04:45:36;;;;;;;6.35;2.40;;;;;;;11.12;92.03;97330.27;1719191;83;21008;-87
2021/08/26 04:48:04;;;;;;;4.45;2.08;;;;;;;11.07;91.48;97334.91;1719251;83;20977;-87
2021/08/26 04:50:30;;;;;;;3.72;1.90;;;;;;;11.07;91.22;97334.45;1726994;82;21012;-87
2021/08/26 04:52:56;;;;;;;4.55;1.98;;;;;;;11.10;91.29;97332.13;1754047;82;20984;-87
2021/08/26 04:55:23;;;;;;;3.58;2.37;;;;;;;11.14;91.21;97327.55;1754331;82;20969;-87
2021/08/26 04:57:49;;;;;;;4.53;2.85;;;;;;;11.22;91.50;97333.41;1757029;82;20953;-87
2021/08/26 05:00:16;;;;;;;3.85;2.10;;;;;;;11.27;91.35;97331.86;1731474;82;21048;-87
2021/08/26 05:02:42;;;;;;;2.70;2.00;;;;;;;11.31;91.07;97326.83;1724099;83;21421;-87
2021/08/26 05:05:10;;;;;;;4.12;2.12;;;;;;;11.34;90.88;97324.05;1725629;82;21064;-88
2021/08/26 05:07:36;;;;;;;5.92;2.50;;;;;;;11.35;90.10;97326.61;1725352;83;21103;-88
2021/08/26 05:10:04;;;;;;;4.85;2.22;;;;;;;11.44;90.27;97326.70;1745688;82;21013;-87
2021/08/26 05:12:31;;;;;;;4.35;2.02;;;;;;;11.45;89.34;97320.91;1724676;82;21074;-88
2021/08/26 05:14:58;;;;;;;5.28;2.50;;;;;;;11.47;89.76;97317.73;1724777;83;21004;-87
2021/08/26 05:17:24;;;;;;;8.15;3.20;;;;;;;11.45;89.45;97319.58;1724775;83;21001;-87
2021/08/26 05:19:50;;;;;;;4.80;2.15;;;;;;;11.45;89.60;97321.78;1724595;83;21032;-87
2021/08/26 05:22:17;;;;;;;6.55;2.75;;;;;;;11.47;89.84;97309.30;1724062;82;21018;-79
2021/08/26 05:24:44;;;;;;;3.77;2.60;;;;;;;11.52;89.97;97310.89;1726869;82;21004;-79
2021/08/26 05:27:10;;;;;;;5.30;2.80;;;;;;;11.56;90.09;97317.78;1720756;83;21384;-79
2021/08/26 05:29:37;;;;;;;5.90;3.00;;;;;;;11.59;90.11;97321.64;1713008;82;21022;-79
2021/08/26 05:32:05;;;;;;;8.63;2.50;;;;;;;11.61;90.04;97317.98;1726181;82;21035;-79
2021/08/26 05:34:31;;;;;;;4.80;2.80;;;;;;;11.64;89.86;97320.09;1715075;83;21059;-78
2021/08/26 05:36:58;;;;;;;5.37;2.60;;;;;;;11.68;89.85;97313.27;1721497;83;21030;-79
2021/08/26 05:39:26;;;;;;;4.67;2.50;;;;;;;11.71;89.93;97319.75;1717080;83;21055;-79
2021/08/26 05:41:53;;;;;;;4.53;2.12;;;;;;;11.75;89.86;97309.39;1678008;83;21035;-79
2021/08/26 05:44:19;;;;;;;3.77;2.58;;;;;;;11.81;89.44;97324.64;1682556;82;21258;-79
2021/08/26 05:46:46;;;;;;;5.58;2.05;;;;;;;11.86;89.35;97321.31;1721248;83;21043;-77
2021/08/26 05:49:13;;;;;;;4.00;2.30;;;;;;;11.90;88.80;97318.91;1721342;83;20992;-77
2021/08/26 05:51:39;;;;;;;3.50;2.10;;;;;;;11.94;88.36;97309.87;1700107;83;21022;-78
2021/08/26 05:54:06;;;;;;;6.37;2.75;;;;;;;12.00;88.35;97309.59;1690300;84;21105;-78
2021/08/26 05:56:33;;;;;;;3.27;2.17;;;;;;;12.07;88.39;97305.34;1699732;84;21043;-79
2021/08/26 05:59:00;;;;;;;3.60;2.17;;;;;;;12.15;88.37;97303.20;1709492;84;21003;-79
2021/08/26 06:01:28;;;;;;;4.10;2.45;;;;;;;12.23;88.06;97306.81;1716613;82;20985;-79
2021/08/26 06:03:55;;;;;;;4.87;2.30;;;;;;;12.31;88.10;97299.80;1723439;82;21381;-78
2021/08/26 06:06:22;;;;;;;6.55;3.90;;;;;;;12.40;87.71;97308.67;1709323;84;21019;-78
2021/08/26 06:08:49;;;;;;;4.90;3.60;;;;;;;12.50;87.39;97296.66;1709366;82;21039;-79
2021/08/26 06:11:16;;;;;;;9.03;4.58;;;;;;;12.62;87.32;97298.34;1707006;82;21031;-77
2021/08/26 06:13:42;;;;;;;12.53;5.70;;;;;;;12.77;87.72;97295.37;1707772;84;21003;-76
2021/08/26 06:16:09;;;;;;;7.00;4.30;;;;;;;12.94;87.62;97296.73;1723502;83;21010;-77
2021/08/26 06:18:35;;;;;;;5.60;4.05;;;;;;;13.13;87.59;97294.47;1724151;83;21023;-76
2021/08/26 06:21:01;;;;;;;9.53;3.55;;;;;;;13.31;87.10;97283.34;1723266;82;20960;-75
2021/08/26 06:23:28;;;;;;;7.85;3.30;;;;;;;13.53;87.24;97281.38;1709089;84;21031;-76
2021/08/26 06:25:54;;;;;;;5.08;2.47;;;;;;;13.75;87.01;97286.88;1709234;84;21055;-75
2021/08/26 06:28:21;;;;;;;4.75;2.12;;;;;;;13.97;87.00;97285.23;1709491;84;21022;-75
2021/08/26 06:30:47;;;;;;;3.42;2.15;;;;;;;14.17;86.28;97289.47;1724114;83;20997;-75
2021/08/26 06:33:14;;;;;;;3.12;2.20;;;;;;;14.32;79.91;97278.41;1709036;84;21421;-75
2021/08/26 06:35:40;;;;;;;7.92;2.98;;;;;;;14.49;83.88;97288.11;1709299;82;20995;-74
2021/08/26 06:38:06;;;;;;;3.10;2.12;;;;;;;14.64;83.68;97282.39;1708183;84;21000;-74
2021/08/26 06:40:33;;;;;;;5.62;2.25;;;;;;;14.79;83.04;97285.15;1703274;84;21035;-75
2021/08/26 06:42:59;;;;;;;5.12;2.30;;;;;;;14.92;81.68;97283.95;1707327;84;20981;-75
2021/08/26 06:45:26;;;;;;;3.87;2.12;;;;;;;15.02;81.66;97282.45;1714681;82;20984;-75
2021/08/26 06:47:52;;;;;;;4.33;2.12;;;;;;;15.11;81.04;97278.86;1708702;84;21036;-75
2021/08/26 06:50:19;;;;;;;3.98;2.67;;;;;;;15.16;78.57;97276.28;1708692;84;21008;-75
2021/08/26 06:52:45;;;;;;;4.30;2.70;;;;;;;15.17;78.18;97278.00;1709114;84;20976;-76
2021/08/26 06:55:11;;;;;;;4.30;2.33;;;;;;;15.17;78.72;97274.48;1708978;84;21091;-76
2021/08/26 06:57:38;;;;;;;7.17;2.67;;;;;;;15.18;78.67;97272.19;1733551;82;21412;-75
2021/08/26 07:00:06;;;;;;;4.97;2.67;;;;;;;15.20;79.30;97272.11;1730970;82;20997;-76
2021/08/26 07:02:33;;;;;;;4.42;2.75;;;;;;;15.13;75.20;97279.62;1720735;82;20969;-76
2021/08/26 07:05:01;;;;;;;5.55;2.60;;;;;;;15.12;76.30;97272.57;1718873;83;20980;-76
2021/08/26 07:07:27;;;;;;;3.67;2.40;;;;;;;15.12;77.95;97270.74;1726886;82;20992;-75
2021/08/26 07:09:53;;;;;;;6.85;3.10;;;;;;;15.13;77.24;97270.28;1718944;83;20996;-75
2021/08/26 07:12:20;;;;;;;5.33;2.40;;;;;;;15.16;78.35;97266.95;1719982;83;21044;-75
2021/08/26 07:14:47;;;;;;;5.78;2.77;;;;;;;15.20;78.77;97262.27;1719809;82;21057;-75
2021/08/26 07:17:13;;;;;;;5.47;2.22;;;;;;;15.23;77.97;97265.27;1719955;82;21540;-75
2021/08/26 07:19:40;;;;;;;4.92;2.60;;;;;;;15.27;78.55;97263.63;1722219;82;21075;-76
2021/08/26 07:22:06;;;;;;;6.72;2.42;;;;;;;15.33;78.79;97270.42;1729148;82;20976;-76
2021/08/26 07:24:32;;;;;;;7.33;3.08;;;;;;;15.39;78.85;97267.84;1730467;82;21008;-76
2021/08/26 07:26:59;;;;;;;6.00;3.17;;;;;;;15.46;78.91;97263.86;1720813;81;21449;-77
2021/08/26 07:29:25;;;;;;;4.97;2.98;;;;;;;15.52;78.62;97268.81;1719547;81;21025;-77
2021/08/26 07:31:51;;;;;;;8.13;3.25;;;;;;;15.60;78.50;97267.00;1739392;82;21418;-77
2021/08/26 07:34:18;;;;;;;4.97;3.12;;;;;;;15.64;78.10;97267.20;1736192;81;21438;-77
2021/08/26 07:36:44;;;;;;;6.28;4.12;;;;;;;15.69;77.97;97262.42;1719725;82;20996;-77
2021/08/26 07:39:11;;;;;;;6.80;4.03;;;;;;;15.75;77.68;97258.52;1737742;82;20957;-77
2021/08/26 07:41:37;;;;;;;12.78;8.58;;;;;;;15.81;77.70;97263.94;1748557;82;21043;-76
2021/08/26 07:44:04;;;;;;;7.30;3.80;;;;;;;15.85;77.86;97254.78;1719136;82;20962;-76
2021/08/26 07:46:31;;;;;;;9.75;4.00;;;;;;;15.91;77.55;97254.38;1719529;82;21439;-76
2021/08/26 07:48:57;;;;;;;5.50;3.55;;;;;;;15.96;77.11;97251.00;1746895;82;20964;-75
2021/08/26 07:51:23;;;;;;;7.55;3.58;;;;;;;16.03;76.09;97255.95;1719345;82;20988;-76
2021/08/26 07:53:50;;;;;;;5.35;3.20;;;;;;;16.09;75.82;97250.20;1718266;82;21501;-77
2021/08/26 07:56:17;;;;;;;8.53;3.33;;;;;;;16.17;74.45;97250.57;1748724;82;21028;-76
2021/08/26 07:58:43;;;;;;;6.75;2.50;;;;;;;16.27;73.69;97246.81;1745707;82;21514;-76
2021/08/26 08:01:10;;;;;;;6.20;2.70;;;;;;;16.35;72.91;97252.98;1729572;82;20977;-76
2021/08/26 08:03:36;;;;;;;5.42;3.40;;;;;;;16.42;73.89;97250.78;1722158;82;21028;-76
2021/08/26 08:06:05;;;;;;;7.15;3.33;;;;;;;16.47;73.44;97250.87;1722614;83;21067;-75
2021/08/26 08:08:32;;;;;;;5.83;3.15;;;;;;;16.52;72.46;97249.70;1725391;82;21012;-76
2021/08/26 08:10:59;;;;;;;4.72;2.75;;;;;;;16.59;72.74;97241.64;1726011;83;21441;-76
2021/08/26 08:13:26;;;;;;;6.10;2.90;;;;;;;16.65;72.27;97239.05;1724920;82;21016;-76
2021/08/26 08:15:52;;;;;;;6.78;2.85;;;;;;;16.72;72.01;97234.52;1724798;82;21430;-75
2021/08/26 08:18:19;;;;;;;6.92;3.05;;;;;;;16.83;70.81;97239.63;1726116;82;21516;-75
2021/08/26 08:20:46;;;;;;;6.08;2.60;;;;;;;16.92;71.05;97232.79;1726169;83;21040;-76
2021/08/26 08:23:13;;;;;;;5.03;3.15;;;;;;;17.00;65.58;97227.31;1724988;83;21001;-76
2021/08/26 08:25:39;;;;;;;6.78;2.75;;;;;;;17.10;68.99;97230.70;1724641;83;20996;-76
2021/08/26 08:28:15;;;;;;;7.80;2.50;;;;;;;17.17;68.96;97233.34;1726805;82;21000;-75
2021/08/26 08:30:43;;;;;;;6.20;2.58;;;;;;;17.22;66.88;97228.53;1737929;82;22214;-77
2021/08/26 08:33:11;;;;;;;6.15;3.12;;;;;;;17.30;68.23;97223.14;1734457;81;21425;-76
2021/08/26 08:35:37;;;;;;;4.15;2.33;;;;;;;17.34;68.08;97224.14;1724323;82;20961;-76
2021/08/26 08:38:04;;;;;;;4.87;2.67;;;;;;;17.41;66.27;97221.39;1730442;82;21018;-76
2021/08/26 08:40:31;;;;;;;4.28;2.40;;;;;;;17.56;67.88;97223.96;1725291;83;21505;-76
2021/08/26 08:42:59;;;;;;;7.28;3.00;;;;;;;17.71;67.34;97216.67;1724453;82;21020;-76
2021/08/26 08:45:26;;;;;;;4.45;2.37;;;;;;;17.94;66.66;97212.33;1723974;83;21565;-76
2021/08/26 08:47:58;;;;;;;5.37;2.20;;;;;;;18.20;66.81;97213.61;1724233;82;21726;-77
2021/08/26 08:50:27;;;;;;;6.47;2.60;;;;;;;18.45;64.66;97210.48;1737336;82;21019;-76
2021/08/26 08:52:55;;;;;;;3.50;2.77;;;;;;;18.67;64.98;97209.33;1728044;82;21019;-77
2021/08/26 08:55:21;;;;;;;5.37;2.67;;;;;;;18.89;63.79;97204.53;1725545;83;21047;-77
2021/08/26 08:57:48;;;;;;;5.75;2.75;;;;;;;19.05;64.22;97204.75;1721635;82;21047;-77
2021/08/26 09:00:19;;;;;;;6.37;2.83;;;;;;;19.18;62.69;97208.68;1724847;82;21078;-77
2021/08/26 09:02:45;;;;;;;6.25;2.98;;;;;;;19.31;62.92;97203.20;1732580;82;21493;-77
2021/08/26 09:05:12;;;;;;;6.37;2.70;;;;;;;19.40;62.49;97203.83;1720453;82;21024;-77
2021/08/26 09:07:39;;;;;;;4.45;2.80;;;;;;;19.51;59.70;97201.61;1719734;83;21023;-77
2021/08/26 09:10:08;;;;;;;4.55;3.00;;;;;;;19.62;61.40;97200.30;1720037;83;21477;-77
2021/08/26 09:12:45;;;;;;;5.53;2.85;;;;;;;19.69;57.96;97203.83;1718626;83;21465;-76
2021/08/26 09:15:28;;;;;;;5.00;2.65;;;;;;;19.79;59.52;97197.60;1720274;82;21012;-76
2021/08/26 09:18:15;;;;;;;6.03;2.58;;;;;;;19.87;59.63;97196.98;1721711;82;21022;-76
2021/08/26 09:20:59;;;;;;;7.87;2.85;;;;;;;19.90;59.43;97203.44;1719728;83;21052;-76
2021/08/26 09:23:30;;;;;;;4.95;3.10;;;;;;;19.92;60.17;97202.84;1713648;83;21478;-76
2021/08/26 09:26:19;;;;;;;4.40;2.65;;;;;;;19.87;59.69;97196.98;1739772;82;21015;-76
2021/08/26 09:28:47;;;;;;;4.72;3.50;;;;;;;19.83;59.31;97201.37;1657754;86;21016;-75
2021/08/26 09:31:26;;;;;;;5.37;2.70;;;;;;;19.83;59.10;97200.02;1708046;82;22427;-77
2021/08/26 09:34:06;;;;;;;5.97;2.77;;;;;;;19.79;59.67;97200.77;1718381;83;21007;-77
2021/08/26 09:36:54;;;;;;;7.95;3.08;;;;;;;19.76;59.71;97196.97;1718379;83;20993;-77
2021/08/26 09:39:24;;;;;;;5.78;3.08;;;;;;;19.75;60.24;97197.95;1718159;83;21046;-76
2021/08/26 09:42:03;;;;;;;5.37;3.00;;;;;;;19.73;60.52;97204.80;1721969;82;21040;-77
2021/08/26 09:44:37;;;;;;;3.85;2.60;;;;;;;19.71;60.03;97193.80;1719663;83;20976;-77
2021/08/26 09:47:07;;;;;;;3.45;3.00;;;;;;;19.71;60.32;97193.31;1720240;83;21122;-75
2021/08/26 09:49:40;;;;;;;5.72;2.40;;;;;;;19.74;56.00;97195.77;1719519;83;21450;-76
2021/08/26 09:52:14;;;;;;;4.95;2.70;;;;;;;19.70;54.48;97196.99;1721859;82;21047;-75
2021/08/26 09:54:50;;;;;;;3.35;2.52;;;;;;;19.73;58.23;97194.55;1738971;82;21092;-77
2021/08/26 09:57:29;;;;;;;3.98;2.65;;;;;;;19.79;58.58;97190.88;1718671;83;21055;-77
2021/08/26 09:59:59;;;;;;;4.28;2.72;;;;;;;19.82;58.70;97193.81;1719818;83;22085;-77
2021/08/26 10:02:29;;;;;;;5.55;2.90;;;;;;;19.84;58.65;97189.15;1719940;83;21032;-76
2021/08/26 10:04:56;;;;;;;10.63;6.00;;;;;;;19.86;58.32;97184.52;1737828;82;22114;-76
2021/08/26 10:07:26;;;;;;;3.85;2.90;;;;;;;19.86;58.16;97187.69;1752990;81;21493;-75
2021/08/26 10:09:53;;;;;;;5.15;3.25;;;;;;;19.85;58.07;97188.67;1716942;83;20993;-76
2021/08/26 10:12:20;;;;;;;5.50;2.83;;;;;;;19.90;58.55;97190.50;1718200;83;21123;-77
2021/08/26 10:14:51;;;;;;;7.80;3.17;;;;;;;19.99;58.64;97191.61;1718578;83;21490;-77
2021/08/26 10:17:19;;;;;;;4.37;3.17;;;;;;;20.09;58.46;97185.84;1725132;82;21457;-76
2021/08/26 10:19:48;;;;;;;4.28;2.98;;;;;;;20.22;58.10;97188.88;1724492;81;21405;-76
2021/08/26 10:22:15;;;;;;;4.35;3.22;;;;;;;20.35;57.68;97184.69;1743012;82;20974;-75
2021/08/26 10:24:41;;;;;;;4.67;3.05;;;;;;;20.42;57.96;97180.01;1751617;82;21076;-76
2021/08/26 10:27:15;;;;;;;4.75;2.92;;;;;;;20.52;57.85;97171.17;1707552;82;21510;-76
2021/08/26 10:29:48;;;;;;;4.90;3.22;;;;;;;20.64;57.45;97166.08;1752835;82;21020;-77
2021/08/26 10:32:24;;;;;;;4.60;3.30;;;;;;;20.74;57.34;97167.52;1751441;82;21461;-77
2021/08/26 10:35:12;;;;;;;4.47;3.33;;;;;;;20.90;58.09;97170.28;1748220;82;20996;-76
2021/08/26 10:37:57;;;;;;;3.95;2.70;;;;;;;21.05;55.26;97168.13;1730142;82;21048;-76
2021/08/26 10:40:34;;;;;;;9.10;2.47;;;;;;;21.22;55.94;97166.66;1720213;83;20957;-76
2021/08/26 10:43:01;;;;;;;4.67;2.50;;;;;;;21.59;56.15;97169.33;1726602;82;21016;-76
2021/08/26 10:45:35;;;;;;;5.47;3.08;;;;;;;22.80;55.26;97163.05;1743597;82;21048;-76
2021/08/26 10:48:05;;;;;;;4.30;2.85;;;;;;;24.39;53.62;97162.34;1718116;83;21028;-76
2021/08/26 10:50:39;;;;;;;5.05;3.40;;;;;;;25.72;50.55;97146.72;1718513;83;21032;-75
2021/08/26 10:53:17;;;;;;;6.03;2.80;;;;;;;27.03;44.02;97145.84;1701138;82;21063;-77
2021/08/26 10:55:52;;;;;;;3.77;3.10;;;;;;;28.20;43.10;97150.42;1719394;83;21024;-75
2021/08/26 10:58:30;;;;;;;3.83;2.45;;;;;;;29.29;44.28;97139.06;1719770;83;21517;-75
2021/08/26 11:01:11;;;;;;;3.80;2.33;;;;;;;29.80;37.93;97131.20;1727860;82;21005;-76
2021/08/26 11:03:46;;;;;;;4.25;2.75;;;;;;;29.98;38.81;97138.45;1737082;81;21490;-77
2021/08/26 11:06:28;;;;;;;4.87;3.02;;;;;;;30.80;34.87;97131.50;1720759;83;21479;-77
2021/08/26 11:09:18;;;;;;;4.15;3.12;;;;;;;31.65;35.39;97128.47;1712172;82;21008;-77
2021/08/26 11:11:47;;;;;;;4.80;2.80;;;;;;;31.57;34.16;97129.99;1694293;84;21079;-77
2021/08/26 11:14:22;;;;;;;4.75;2.72;;;;;;;30.25;35.48;97131.98;1694340;85;21477;-77
2021/08/26 11:16:54;;;;;;;3.25;2.40;;;;;;;29.25;36.71;97129.55;1702896;83;21047;-77
2021/08/26 11:19:37;;;;;;;5.33;2.75;;;;;;;28.45;37.67;97136.67;1729869;82;21044;-77
2021/08/26 11:22:02;;;;;;;3.58;2.70;;;;;;;27.59;37.93;97141.45;1720293;83;21035;-77
2021/08/26 11:24:38;;;;;;;4.15;2.42;;;;;;;26.80;39.62;97141.05;1715030;82;21070;-77
2021/08/26 11:27:19;;;;;;;5.72;2.62;;;;;;;26.19;38.98;97142.14;1694606;85;21056;-76
2021/08/26 11:29:45;;;;;;;8.58;3.15;;;;;;;25.54;41.15;97143.04;1694480;85;21524;-77
2021/08/26 11:32:14;;;;;;;6.22;2.98;;;;;;;24.97;40.83;97144.41;1694278;85;22099;-77
2021/08/26 11:34:54;;;;;;;8.15;3.05;;;;;;;24.46;42.20;97154.42;1695027;83;21393;-76
2021/08/26 11:37:31;;;;;;;7.05;3.02;;;;;;;24.18;43.10;97151.79;1723104;83;21413;-76
2021/08/26 11:40:11;;;;;;;3.65;2.60;;;;;;;23.90;43.77;97150.91;1723357;83;21031;-76
2021/08/26 11:42:49;;;;;;;5.17;2.67;;;;;;;23.64;43.95;97152.48;1723409;83;21003;-77
2021/08/26 11:45:25;;;;;;;5.20;2.62;;;;;;;23.46;45.01;97150.55;1722738;83;21035;-76